Time;durP1;ratioP1;P1;durP2;ratioP2;P2;SDS_P1;SDS_P2;PMS_P1;PMS_P2;Temp;Humidity;BMP_temperature;BMP_pressure;BME280_temperature;BME280_humidity;BME280_pressure;Samples;Min_cycle;Max_cycle;Signal;HPM_P1;HPM_P2
2023/03/02 00:00:14;;;;;;;24.20;16.87;;;9.40;44.70;;;;;;4999181;28;20458;-65
2023/03/02 00:02:41;;;;;;;23.37;15.00;;;9.40;44.80;;;;;;5010730;28;20263;-65
2023/03/02 00:05:08;;;;;;;23.67;16.17;;;9.30;44.70;;;;;;5008910;28;20848;-65
2023/03/02 00:07:34;;;;;;;23.43;15.80;;;9.30;44.90;;;;;;5010099;28;20444;-65
2023/03/02 00:10:00;;;;;;;23.50;16.63;;;9.30;45.00;;;;;;5007213;28;20450;-65
2023/03/02 00:12:27;;;;;;;24.03;16.23;;;9.30;45.00;;;;;;5010483;28;20498;-65
2023/03/02 00:14:53;;;;;;;25.97;16.10;;;9.20;45.00;;;;;;5011509;28;20723;-65
2023/03/02 00:17:26;;;;;;;26.00;16.40;;;9.10;45.00;;;;;;4996247;28;20433;-65
2023/03/02 00:20:08;;;;;;;21.43;16.57;;;9.10;45.20;;;;;;5008656;28;20678;-65
2023/03/02 00:22:34;;;;;;;23.13;16.83;;;9.00;45.30;;;;;;5002220;28;20554;-65
2023/03/02 00:25:00;;;;;;;21.07;14.90;;;9.00;45.50;;;;;;5008184;28;20437;-65
2023/03/02 00:27:28;;;;;;;20.30;15.63;;;9.00;45.60;;;;;;5002247;28;20453;-65
2023/03/02 00:29:54;;;;;;;24.90;17.33;;;8.90;45.60;;;;;;4999911;28;20200;-65
2023/03/02 00:32:20;;;;;;;27.17;18.03;;;8.90;45.80;;;;;;5012376;28;20755;-65
2023/03/02 00:34:45;;;;;;;22.33;16.20;;;8.90;45.90;;;;;;5009823;28;20452;-65
2023/03/02 00:37:11;;;;;;;21.90;17.07;;;8.90;45.90;;;;;;5006923;28;20645;-65
2023/03/02 00:39:37;;;;;;;25.53;17.60;;;8.90;46.00;;;;;;5004005;28;20280;-65
2023/03/02 00:42:02;;;;;;;26.67;18.70;;;8.90;46.00;;;;;;5001393;28;20311;-65
2023/03/02 00:44:28;;;;;;;25.60;17.73;;;8.90;45.60;;;;;;5007134;28;20284;-65
2023/03/02 00:46:53;;;;;;;25.33;18.47;;;8.80;45.40;;;;;;5000411;28;20198;-65
2023/03/02 00:49:19;;;;;;;24.00;16.47;;;8.70;45.40;;;;;;4993378;28;20231;-65
2023/03/02 00:51:44;;;;;;;22.33;17.30;;;8.70;45.70;;;;;;5008855;28;20202;-65
2023/03/02 00:54:10;;;;;;;23.97;16.07;;;8.60;45.80;;;;;;5010953;28;20562;-65
2023/03/02 00:56:35;;;;;;;25.73;17.60;;;8.60;46.00;;;;;;5005765;28;20270;-65
2023/03/02 00:59:24;;;;;;;26.63;17.87;;;8.50;46.00;;;;;;5010264;28;20225;-65
2023/03/02 01:01:56;;;;;;;24.40;18.07;;;8.40;46.10;;;;;;5009050;28;20260;-65
2023/03/02 01:04:30;;;;;;;22.40;15.30;;;8.40;46.20;;;;;;5003345;28;21001;-65
2023/03/02 01:06:57;;;;;;;30.20;18.10;;;8.40;46.20;;;;;;5007867;28;20441;-65
2023/03/02 01:09:23;;;;;;;25.50;17.90;;;8.40;46.30;;;;;;5010578;28;20475;-65
2023/03/02 01:11:49;;;;;;;24.83;17.37;;;8.40;46.30;;;;;;5010622;28;20449;-65
2023/03/02 01:14:15;;;;;;;26.50;17.77;;;8.30;46.30;;;;;;5008501;28;20433;-65
2023/03/02 01:16:41;;;;;;;20.40;16.00;;;8.30;46.50;;;;;;4999984;28;20980;-65
2023/03/02 01:19:07;;;;;;;25.20;17.93;;;8.30;46.60;;;;;;5005891;28;20442;-65
2023/03/02 01:21:33;;;;;;;23.93;16.90;;;8.20;46.50;;;;;;4999384;28;20225;-65
2023/03/02 01:23:58;;;;;;;27.80;17.53;;;8.20;46.50;;;;;;5007603;28;20486;-65
2023/03/02 01:26:24;;;;;;;23.37;17.27;;;8.20;46.70;;;;;;5007257;28;20240;-65
2023/03/02 01:28:54;;;;;;;28.27;17.13;;;8.20;46.70;;;;;;5006692;28;20604;-65
2023/03/02 01:31:20;;;;;;;24.17;16.33;;;8.20;46.80;;;;;;5007393;28;20202;-65
2023/03/02 01:33:46;;;;;;;25.70;16.30;;;8.10;46.70;;;;;;5001470;28;20444;-65
2023/03/02 01:36:11;;;;;;;24.10;17.30;;;8.10;46.70;;;;;;5006215;28;20492;-65
2023/03/02 01:38:37;;;;;;;24.93;17.47;;;8.10;46.80;;;;;;5007393;28;20199;-66
2023/03/02 01:41:03;;;;;;;24.27;17.10;;;8.00;46.90;;;;;;5010786;28;20707;-65
2023/03/02 01:43:28;;;;;;;25.63;16.27;;;8.00;47.10;;;;;;5010077;28;20198;-65
2023/03/02 01:45:58;;;;;;;24.13;17.60;;;7.90;47.30;;;;;;5010196;28;20204;-65
2023/03/02 01:48:32;;;;;;;24.53;17.30;;;7.90;47.20;;;;;;5006890;28;20558;-65
2023/03/02 01:51:00;;;;;;;32.47;17.70;;;7.80;46.90;;;;;;5004151;28;20444;-65
2023/03/02 01:53:30;;;;;;;25.10;17.30;;;7.70;47.20;;;;;;5008915;28;20594;-65
2023/03/02 01:55:57;;;;;;;26.07;16.37;;;7.70;47.30;;;;;;4997058;28;22022;-65
2023/03/02 01:58:24;;;;;;;28.20;18.00;;;7.70;47.20;;;;;;5006519;28;20447;-65
2023/03/02 02:00:51;;;;;;;25.47;16.87;;;7.70;47.20;;;;;;4990509;28;20834;-65
2023/03/02 02:03:22;;;;;;;26.10;17.77;;;7.60;47.10;;;;;;4999853;28;20705;-65
2023/03/02 02:06:16;;;;;;;27.03;17.30;;;7.60;47.30;;;;;;4997094;28;20433;-65
2023/03/02 02:08:43;;;;;;;25.20;16.77;;;7.60;47.30;;;;;;5002395;28;20429;-65
2023/03/02 02:11:10;;;;;;;23.13;16.40;;;7.60;47.40;;;;;;5002544;28;20527;-65
2023/03/02 02:13:36;;;;;;;27.37;18.30;;;7.50;47.50;;;;;;5009140;28;20527;-66
2023/03/02 02:16:01;;;;;;;24.47;16.87;;;7.50;47.60;;;;;;5008234;28;20536;-65
2023/03/02 02:18:27;;;;;;;21.83;16.33;;;7.40;47.70;;;;;;5004031;28;21334;-65
2023/03/02 02:20:54;;;;;;;27.97;18.07;;;7.40;47.90;;;;;;5001876;28;20274;-65
2023/03/02 02:23:36;;;;;;;33.80;18.23;;;7.10;48.20;;;;;;5006370;28;20266;-65
2023/03/02 02:26:17;;;;;;;33.23;20.10;;;7.10;48.60;;;;;;4999596;28;20445;-65
2023/03/02 02:28:57;;;;;;;32.40;21.30;;;7.10;48.60;;;;;;5005070;28;20449;-65
2023/03/02 02:31:29;;;;;;;31.53;18.27;;;7.20;48.50;;;;;;5000366;28;20440;-65
2023/03/02 02:34:05;;;;;;;30.70;18.97;;;7.20;48.40;;;;;;5006754;28;20456;-65
2023/03/02 02:36:37;;;;;;;24.97;17.53;;;7.20;48.50;;;;;;5006108;28;20437;-65
2023/03/02 02:39:05;;;;;;;29.57;18.17;;;7.30;48.60;;;;;;5002980;28;20527;-65
2023/03/02 02:41:36;;;;;;;27.70;18.33;;;7.30;48.50;;;;;;4998501;28;20474;-65
2023/03/02 02:44:02;;;;;;;30.73;18.83;;;7.30;48.50;;;;;;5004065;28;21023;-65
2023/03/02 02:46:28;;;;;;;26.03;17.83;;;7.30;48.50;;;;;;5007103;28;20528;-65
2023/03/02 02:48:53;;;;;;;25.50;18.20;;;7.20;48.40;;;;;;5008055;28;20245;-65
2023/03/02 02:51:27;;;;;;;25.60;18.90;;;7.20;48.50;;;;;;5009379;28;20933;-65
2023/03/02 02:53:59;;;;;;;27.43;17.83;;;7.20;48.40;;;;;;5008123;28;20190;-65
2023/03/02 02:56:34;;;;;;;31.10;18.90;;;7.20;48.30;;;;;;5007548;28;20880;-65
2023/03/02 02:59:16;;;;;;;30.07;18.47;;;7.10;48.20;;;;;;5007858;28;21154;-65
2023/03/02 03:01:42;;;;;;;26.77;18.90;;;7.10;48.10;;;;;;5001183;28;20523;-65
2023/03/02 03:04:13;;;;;;;31.63;18.70;;;7.10;48.20;;;;;;5008259;28;20479;-65
2023/03/02 03:06:49;;;;;;;25.00;17.47;;;7.00;48.20;;;;;;4997771;28;20456;-65
2023/03/02 03:09:15;;;;;;;31.10;20.30;;;7.00;48.20;;;;;;5006001;28;20849;-65
2023/03/02 03:11:45;;;;;;;32.57;20.50;;;7.00;48.40;;;;;;5003024;28;20445;-65
2023/03/02 03:14:14;;;;;;;31.20;20.93;;;7.00;48.50;;;;;;5006601;28;20518;-65
2023/03/02 03:16:42;;;;;;;31.03;19.50;;;7.00;48.60;;;;;;5009326;28;20480;-65
2023/03/02 03:19:22;;;;;;;30.40;20.03;;;7.00;48.90;;;;;;5005612;28;20528;-65
2023/03/02 03:21:51;;;;;;;30.30;19.90;;;7.00;48.90;;;;;;5009793;28;20499;-65
2023/03/02 03:24:17;;;;;;;28.57;19.70;;;7.00;48.60;;;;;;5000358;28;20446;-65
2023/03/02 03:26:43;;;;;;;28.60;18.90;;;7.00;48.40;;;;;;5003572;28;20494;-65
2023/03/02 03:29:10;;;;;;;29.00;18.60;;;7.00;48.30;;;;;;5001608;28;20473;-65
2023/03/02 03:31:35;;;;;;;24.60;17.90;;;6.90;48.40;;;;;;5011156;28;20472;-65
2023/03/02 03:34:01;;;;;;;27.93;17.60;;;6.90;48.50;;;;;;4991890;28;21030;-65
2023/03/02 03:36:28;;;;;;;27.60;16.77;;;6.90;48.60;;;;;;5010313;28;20186;-65
2023/03/02 03:38:55;;;;;;;28.83;18.30;;;6.90;48.60;;;;;;5007132;28;20437;-66
2023/03/02 03:41:21;;;;;;;29.17;16.80;;;6.80;48.40;;;;;;5005176;28;20574;-65
2023/03/02 03:43:47;;;;;;;26.07;16.13;;;6.80;48.30;;;;;;5008470;28;20457;-65
2023/03/02 03:46:12;;;;;;;23.87;16.97;;;6.80;48.50;;;;;;4986826;28;20461;-65
2023/03/02 03:48:38;;;;;;;24.40;16.50;;;6.70;48.50;;;;;;5009633;28;20264;-65
2023/03/02 03:51:04;;;;;;;24.17;16.47;;;6.70;48.40;;;;;;5008583;28;20194;-65
2023/03/02 03:53:30;;;;;;;29.40;18.77;;;6.70;48.30;;;;;;5005784;28;20226;-65
2023/03/02 03:55:56;;;;;;;26.43;18.07;;;6.70;48.40;;;;;;5009714;28;20443;-65
2023/03/02 03:58:23;;;;;;;26.77;16.90;;;6.70;48.50;;;;;;5003022;28;20444;-65
2023/03/02 04:00:50;;;;;;;24.33;17.23;;;6.70;48.60;;;;;;5007234;28;20190;-65
2023/03/02 04:03:16;;;;;;;32.90;18.67;;;6.70;48.60;;;;;;5006969;28;20492;-65
2023/03/02 04:05:41;;;;;;;25.10;16.00;;;6.60;48.80;;;;;;5009221;28;20748;-65
2023/03/02 04:08:08;;;;;;;24.93;18.87;;;6.60;49.00;;;;;;5012135;28;21176;-65
2023/03/02 04:10:34;;;;;;;26.30;17.53;;;6.60;48.90;;;;;;5003992;28;20255;-65
2023/03/02 04:13:00;;;;;;;25.07;16.10;;;6.60;48.80;;;;;;5012702;28;20421;-65
2023/03/02 04:15:26;;;;;;;31.33;18.67;;;6.60;49.00;;;;;;5010069;28;20430;-65
2023/03/02 04:17:52;;;;;;;25.70;18.50;;;6.60;49.30;;;;;;5003226;28;20432;-65
2023/03/02 04:20:18;;;;;;;30.57;17.83;;;6.60;49.30;;;;;;5013231;28;20432;-65
2023/03/02 04:22:46;;;;;;;25.87;18.33;;;6.60;49.10;;;;;;5010849;28;20642;-66
2023/03/02 04:25:14;;;;;;;24.73;16.80;;;6.60;49.20;;;;;;4998692;28;20441;-65
2023/03/02 04:27:39;;;;;;;28.40;18.07;;;6.50;49.20;;;;;;4997485;28;20775;-65
2023/03/02 04:30:07;;;;;;;27.27;17.10;;;6.50;49.20;;;;;;5005419;28;20422;-65
2023/03/02 04:32:33;;;;;;;24.17;17.10;;;6.50;49.10;;;;;;4998735;28;20260;-65
2023/03/02 04:34:58;;;;;;;26.83;17.30;;;6.50;49.20;;;;;;5009968;28;20441;-65
2023/03/02 04:37:24;;;;;;;28.17;17.50;;;6.40;49.50;;;;;;5001818;28;20226;-65
2023/03/02 04:39:51;;;;;;;27.93;17.77;;;6.40;49.70;;;;;;5004800;28;20606;-65
2023/03/02 04:42:18;;;;;;;29.23;17.70;;;6.40;49.20;;;;;;5003858;28;20233;-65
2023/03/02 04:44:44;;;;;;;31.87;18.03;;;6.50;48.90;;;;;;5008625;28;20441;-65
2023/03/02 04:47:10;;;;;;;25.77;16.13;;;6.40;48.80;;;;;;5002858;28;20483;-65
2023/03/02 04:49:35;;;;;;;25.90;17.20;;;6.40;48.80;;;;;;5009792;28;20190;-65
2023/03/02 04:52:01;;;;;;;25.93;17.50;;;6.30;48.90;;;;;;4993343;28;21114;-66
2023/03/02 04:54:27;;;;;;;25.33;17.20;;;6.30;49.00;;;;;;5007727;28;20253;-66
2023/03/02 04:56:53;;;;;;;28.33;16.53;;;6.30;49.10;;;;;;5010857;28;20448;-65
2023/03/02 04:59:22;;;;;;;28.00;17.30;;;6.30;49.40;;;;;;4997888;28;20209;-65
2023/03/02 05:01:48;;;;;;;27.57;17.77;;;6.30;49.50;;;;;;4990449;28;20495;-65
2023/03/02 05:04:14;;;;;;;25.33;17.10;;;6.30;49.40;;;;;;4992063;28;22174;-65
2023/03/02 05:06:40;;;;;;;30.33;18.77;;;6.30;49.40;;;;;;5011978;28;20425;-65
2023/03/02 05:09:06;;;;;;;26.10;17.20;;;6.30;49.50;;;;;;5010630;28;20205;-65
2023/03/02 05:11:31;;;;;;;26.30;16.67;;;6.30;49.50;;;;;;5009708;28;20233;-65
2023/03/02 05:14:00;;;;;;;33.80;18.10;;;6.30;49.40;;;;;;5005983;28;20453;-65
2023/03/02 05:16:31;;;;;;;26.63;17.30;;;6.20;49.50;;;;;;4995663;28;20190;-65
2023/03/02 05:18:57;;;;;;;28.33;18.43;;;6.30;49.40;;;;;;5003471;28;20450;-65
2023/03/02 05:21:23;;;;;;;23.73;16.40;;;6.30;49.50;;;;;;4992543;28;20518;-65
2023/03/02 05:23:49;;;;;;;25.33;17.30;;;6.20;49.40;;;;;;5004491;28;20436;-65
2023/03/02 05:26:15;;;;;;;29.50;16.67;;;6.20;49.30;;;;;;5005645;28;20265;-65
2023/03/02 05:28:41;;;;;;;26.13;17.37;;;6.20;49.10;;;;;;5009282;28;20436;-65
2023/03/02 05:31:07;;;;;;;26.03;16.70;;;6.20;49.40;;;;;;5007361;28;20528;-65
2023/03/02 05:33:33;;;;;;;28.27;19.20;;;6.20;49.40;;;;;;5004749;28;20227;-65
2023/03/02 05:35:59;;;;;;;25.83;18.10;;;6.20;49.50;;;;;;5007659;28;20445;-65
2023/03/02 05:38:26;;;;;;;25.73;18.73;;;6.20;49.60;;;;;;5004194;28;20542;-66
2023/03/02 05:40:52;;;;;;;25.47;18.60;;;6.10;49.50;;;;;;5006728;28;20186;-65
2023/03/02 05:43:19;;;;;;;27.63;18.67;;;6.10;49.60;;;;;;5002867;28;20528;-65
2023/03/02 05:45:45;;;;;;;29.17;18.43;;;6.10;50.30;;;;;;5007556;28;20451;-65
2023/03/02 05:48:14;;;;;;;27.97;18.57;;;6.10;49.70;;;;;;5008608;28;20818;-65
2023/03/02 05:50:40;;;;;;;26.80;17.10;;;6.20;50.00;;;;;;5008645;28;20202;-65
2023/03/02 05:53:06;;;;;;;29.93;18.87;;;6.20;50.10;;;;;;5007157;28;20445;-65
2023/03/02 05:55:35;;;;;;;31.67;21.27;;;6.10;49.80;;;;;;5009790;28;20447;-65
2023/03/02 05:58:03;;;;;;;28.03;18.47;;;6.10;49.80;;;;;;5003135;28;20190;-65
2023/03/02 06:00:29;;;;;;;31.97;20.10;;;6.10;49.80;;;;;;5007459;28;20523;-64
2023/03/02 06:02:55;;;;;;;31.30;20.43;;;6.10;49.80;;;;;;5006443;28;20571;-65
2023/03/02 06:05:21;;;;;;;32.90;20.00;;;6.10;49.80;;;;;;5000347;28;20225;-65
2023/03/02 06:07:47;;;;;;;32.60;20.27;;;6.10;49.90;;;;;;5006324;28;20449;-65
2023/03/02 06:10:13;;;;;;;31.90;19.47;;;6.10;49.90;;;;;;4997218;28;20792;-65
2023/03/02 06:12:39;;;;;;;34.90;20.73;;;6.10;49.80;;;;;;5008215;28;20562;-65
2023/03/02 06:15:06;;;;;;;28.23;17.87;;;6.10;49.90;;;;;;5009682;28;20858;-66
2023/03/02 06:17:31;;;;;;;36.80;24.30;;;6.20;50.60;;;;;;5004727;28;20834;-66
2023/03/02 06:19:57;;;;;;;31.50;20.53;;;6.50;52.30;;;;;;4997899;28;20446;-66
2023/03/02 06:22:23;;;;;;;32.30;18.77;;;6.90;52.60;;;;;;5006695;28;20656;-66
2023/03/02 06:24:48;;;;;;;30.40;18.37;;;7.30;52.40;;;;;;5002149;28;21206;-66
2023/03/02 06:27:14;;;;;;;24.07;16.47;;;7.60;50.70;;;;;;5002336;28;20198;-66
2023/03/02 06:29:40;;;;;;;31.73;19.57;;;7.90;50.10;;;;;;5003439;28;20661;-66
2023/03/02 06:32:05;;;;;;;30.10;17.77;;;8.20;49.80;;;;;;5004867;28;20260;-66
2023/03/02 06:34:32;;;;;;;25.17;17.73;;;8.30;47.80;;;;;;5004583;28;20559;-67
2023/03/02 06:36:57;;;;;;;31.23;20.43;;;8.50;47.50;;;;;;5008854;28;20448;-66
2023/03/02 06:39:23;;;;;;;42.77;27.80;;;8.60;46.60;;;;;;5003438;28;20997;-66
2023/03/02 06:41:49;;;;;;;32.17;20.90;;;8.70;46.10;;;;;;5010072;28;20217;-66
2023/03/02 06:44:16;;;;;;;27.30;18.53;;;8.80;46.30;;;;;;5004275;28;20193;-66
2023/03/02 06:46:42;;;;;;;28.93;18.97;;;8.90;46.40;;;;;;5007817;28;20453;-66
2023/03/02 06:49:09;;;;;;;25.10;18.47;;;9.00;45.80;;;;;;5003658;28;21007;-66
2023/03/02 06:51:34;;;;;;;31.23;20.23;;;9.10;45.30;;;;;;5003737;28;20996;-66
2023/03/02 06:54:00;;;;;;;30.50;20.07;;;9.20;44.80;;;;;;5004776;28;21825;-66
2023/03/02 06:56:26;;;;;;;31.47;19.57;;;9.30;44.70;;;;;;5009305;28;20202;-66
2023/03/02 06:58:51;;;;;;;34.20;20.57;;;9.30;44.70;;;;;;5008590;28;20198;-66
2023/03/02 07:01:18;;;;;;;29.53;20.77;;;9.50;45.00;;;;;;5008845;28;20688;-66
2023/03/02 07:03:44;;;;;;;35.77;21.10;;;9.50;44.50;;;;;;5008763;28;20212;-66
2023/03/02 07:06:11;;;;;;;31.83;18.43;;;9.60;44.40;;;;;;5005525;28;20444;-66
2023/03/02 07:08:36;;;;;;;29.43;19.53;;;9.70;44.30;;;;;;5009487;28;20441;-66
2023/03/02 07:11:10;;;;;;;27.20;19.00;;;9.70;43.70;;;;;;5012873;28;20560;-66
2023/03/02 07:13:37;;;;;;;25.37;19.73;;;9.70;43.50;;;;;;5005363;28;20665;-66
2023/03/02 07:16:11;;;;;;;29.27;19.40;;;9.70;43.60;;;;;;5012745;28;20429;-66
2023/03/02 07:18:36;;;;;;;29.20;20.77;;;9.70;43.50;;;;;;5010462;28;20835;-66
2023/03/02 07:21:03;;;;;;;28.80;20.43;;;9.70;43.60;;;;;;5007737;28;20448;-66
2023/03/02 07:23:28;;;;;;;30.87;20.37;;;9.60;43.90;;;;;;5004767;28;20573;-66
2023/03/02 07:25:54;;;;;;;32.20;22.23;;;9.70;44.40;;;;;;5008423;28;20441;-66
2023/03/02 07:28:22;;;;;;;34.40;21.50;;;9.80;44.40;;;;;;5008738;28;20479;-66
2023/03/02 07:30:49;;;;;;;39.73;25.03;;;9.90;44.20;;;;;;5001937;28;20453;-66
2023/03/02 07:33:14;;;;;;;37.03;26.97;;;10.00;43.20;;;;;;5000931;28;20455;-66
2023/03/02 07:35:40;;;;;;;36.83;27.00;;;10.00;43.60;;;;;;4999051;28;20536;-66
2023/03/02 07:38:05;;;;;;;43.27;31.57;;;10.00;42.70;;;;;;5003205;28;20252;-66
2023/03/02 07:40:32;;;;;;;38.93;27.90;;;10.10;42.70;;;;;;5013782;28;20198;-66
2023/03/02 07:42:58;;;;;;;33.63;26.10;;;10.00;42.80;;;;;;5011390;28;20316;-66
2023/03/02 07:45:24;;;;;;;37.07;26.57;;;10.00;42.70;;;;;;5005569;28;20513;-66
2023/03/02 07:47:50;;;;;;;33.80;25.03;;;10.00;42.80;;;;;;5007812;28;20222;-66
2023/03/02 07:50:16;;;;;;;39.13;25.73;;;10.10;43.30;;;;;;5013106;28;20439;-66
2023/03/02 07:52:41;;;;;;;39.30;25.47;;;10.10;43.50;;;;;;5012385;28;20860;-66
2023/03/02 07:55:08;;;;;;;38.10;24.80;;;10.30;43.50;;;;;;4992338;28;20245;-66
2023/03/02 07:57:33;;;;;;;29.80;22.83;;;10.40;43.60;;;;;;5011037;28;20252;-66
2023/03/02 07:59:59;;;;;;;31.43;22.67;;;10.60;43.30;;;;;;5004133;28;20437;-66
2023/03/02 08:02:24;;;;;;;37.90;21.07;;;10.70;42.90;;;;;;5005812;28;20317;-66
2023/03/02 08:04:51;;;;;;;31.37;20.77;;;10.90;42.80;;;;;;5005947;28;20202;-66
2023/03/02 08:07:17;;;;;;;28.10;21.47;;;11.10;42.80;;;;;;5012025;28;20229;-66
2023/03/02 08:09:42;;;;;;;28.80;18.13;;;11.30;42.80;;;;;;4994103;28;20461;-66
2023/03/02 08:12:08;;;;;;;29.67;20.20;;;11.40;42.80;;;;;;4993498;28;20429;-66
2023/03/02 08:14:34;;;;;;;32.30;20.80;;;11.40;42.90;;;;;;4992576;28;20194;-66
2023/03/02 08:17:01;;;;;;;36.87;22.93;;;11.40;43.10;;;;;;5012080;28;20205;-66
2023/03/02 08:19:26;;;;;;;34.80;26.10;;;11.50;43.00;;;;;;5013051;28;20497;-66
2023/03/02 08:21:52;;;;;;;33.03;22.67;;;11.60;42.60;;;;;;5005010;28;20524;-66
2023/03/02 08:24:18;;;;;;;29.70;22.70;;;11.60;42.60;;;;;;4997885;28;20602;-66
2023/03/02 08:26:43;;;;;;;30.73;22.13;;;11.60;43.10;;;;;;5001105;28;20201;-66
2023/03/02 08:29:09;;;;;;;33.37;22.67;;;11.70;43.00;;;;;;4993573;28;20194;-66
2023/03/02 08:31:35;;;;;;;28.30;20.27;;;11.70;43.10;;;;;;4992954;28;20594;-66
2023/03/02 08:34:01;;;;;;;28.70;19.83;;;11.70;43.30;;;;;;5011820;28;20194;-66
2023/03/02 08:36:26;;;;;;;26.60;20.57;;;11.90;43.40;;;;;;4997853;28;20603;-66
2023/03/02 08:38:53;;;;;;;28.50;20.43;;;11.90;43.10;;;;;;5008779;28;20444;-66
2023/03/02 08:41:20;;;;;;;31.40;19.87;;;12.00;42.90;;;;;;5009073;28;20726;-66
2023/03/02 08:43:47;;;;;;;36.80;21.60;;;11.90;42.90;;;;;;5010191;28;20441;-66
2023/03/02 08:46:15;;;;;;;23.83;18.00;;;11.90;42.80;;;;;;5003008;28;20472;-66
2023/03/02 08:48:41;;;;;;;24.27;18.90;;;11.90;43.10;;;;;;5002393;28;20877;-66
2023/03/02 08:51:10;;;;;;;26.73;17.60;;;11.80;43.40;;;;;;5005847;28;20571;-66
2023/03/02 08:53:38;;;;;;;22.43;16.60;;;11.80;43.10;;;;;;5003641;28;20216;-66
2023/03/02 08:56:13;;;;;;;25.53;18.53;;;11.80;43.30;;;;;;5003722;28;20467;-66
2023/03/02 08:58:38;;;;;;;29.90;19.23;;;11.80;43.30;;;;;;4999017;28;20440;-66
2023/03/02 09:01:04;;;;;;;25.70;17.40;;;11.80;43.50;;;;;;5001270;28;20951;-66
2023/03/02 09:03:29;;;;;;;29.50;19.30;;;12.00;43.60;;;;;;5004466;28;20251;-67
2023/03/02 09:05:55;;;;;;;21.40;16.17;;;12.00;42.90;;;;;;5004767;28;20196;-66
2023/03/02 09:08:21;;;;;;;23.60;17.40;;;12.10;43.10;;;;;;5006757;28;20209;-65
2023/03/02 09:10:46;;;;;;;24.87;17.60;;;12.20;42.80;;;;;;5000916;28;20201;-66
2023/03/02 09:13:12;;;;;;;21.20;15.17;;;12.30;43.10;;;;;;5008095;28;20206;-66
2023/03/02 09:15:38;;;;;;;22.30;15.50;;;12.50;42.60;;;;;;5006884;28;20197;-66
2023/03/02 09:18:03;;;;;;;24.70;18.80;;;12.50;41.90;;;;;;5006602;28;21126;-65
2023/03/02 09:20:29;;;;;;;22.80;15.97;;;12.60;41.70;;;;;;4990583;28;20445;-66
2023/03/02 09:22:55;;;;;;;21.80;16.03;;;12.70;41.60;;;;;;5007524;28;20228;-66
2023/03/02 09:25:21;;;;;;;24.67;16.63;;;12.80;41.90;;;;;;5007574;28;20854;-65
2023/03/02 09:27:46;;;;;;;24.23;16.50;;;12.80;41.50;;;;;;5007824;28;20198;-65
2023/03/02 09:30:14;;;;;;;22.63;15.40;;;12.90;41.40;;;;;;5006350;28;20633;-66
2023/03/02 09:32:40;;;;;;;22.37;16.53;;;12.90;41.50;;;;;;4990474;28;20654;-65
2023/03/02 09:35:06;;;;;;;25.77;16.40;;;12.90;41.70;;;;;;5006476;28;20444;-66
2023/03/02 09:37:31;;;;;;;27.00;17.40;;;13.00;41.10;;;;;;5002500;28;20521;-66
2023/03/02 09:39:57;;;;;;;23.37;16.73;;;13.10;41.30;;;;;;5006296;28;21005;-66
2023/03/02 09:42:47;;;;;;;24.07;16.87;;;13.20;41.20;;;;;;5004655;28;20257;-66
2023/03/02 09:45:37;;;;;;;23.40;17.07;;;13.30;40.80;;;;;;5009357;28;20220;-67
2023/03/02 09:48:18;;;;;;;22.90;17.10;;;13.40;40.90;;;;;;5006578;28;20489;-67
2023/03/02 09:51:21;;;;;;;25.73;18.17;;;13.50;40.80;;;;;;5006174;28;20846;-67
2023/03/02 09:54:14;;;;;;;22.57;16.57;;;13.60;40.90;;;;;;5010214;28;20595;-67
2023/03/02 09:56:48;;;;;;;20.63;15.50;;;13.50;40.30;;;;;;5006693;28;20455;-67
2023/03/02 09:59:25;;;;;;;22.80;17.23;;;13.40;40.80;;;;;;5005725;28;20465;-66
2023/03/02 10:02:17;;;;;;;21.60;16.77;;;13.50;41.10;;;;;;5006184;28;20488;-66
2023/03/02 10:04:46;;;;;;;23.53;17.20;;;13.60;41.40;;;;;;4963790;28;20471;-67
2023/03/02 10:07:13;;;;;;;20.80;16.60;;;13.80;41.50;;;;;;5005547;28;20878;-66
2023/03/02 10:09:39;;;;;;;23.20;16.37;;;14.10;41.70;;;;;;5002357;28;20517;-67
2023/03/02 10:12:20;;;;;;;22.77;16.97;;;14.30;40.50;;;;;;5004581;28;20440;-67
2023/03/02 10:15:05;;;;;;;23.33;17.23;;;14.40;40.30;;;;;;5005291;28;20795;-66
2023/03/02 10:17:51;;;;;;;26.60;17.40;;;14.40;40.60;;;;;;5003213;28;20540;-67
2023/03/02 10:20:23;;;;;;;20.83;16.10;;;14.60;40.40;;;;;;5001611;28;20477;-66
2023/03/02 10:22:53;;;;;;;25.17;16.83;;;14.90;40.40;;;;;;4998775;28;20972;-66
2023/03/02 10:25:47;;;;;;;22.87;16.33;;;15.00;39.60;;;;;;5005144;28;20449;-67
2023/03/02 10:28:22;;;;;;;22.30;15.70;;;15.00;39.50;;;;;;5010049;28;20483;-67
2023/03/02 10:31:06;;;;;;;24.30;17.60;;;15.10;39.30;;;;;;5004939;28;20444;-67
2023/03/02 10:33:35;;;;;;;20.80;16.40;;;15.20;39.00;;;;;;5003564;28;20805;-66
2023/03/02 10:36:03;;;;;;;23.67;16.00;;;15.30;39.00;;;;;;5010004;28;20556;-67
2023/03/02 10:38:30;;;;;;;20.60;16.83;;;15.40;38.90;;;;;;5004441;28;21059;-68
2023/03/02 10:41:00;;;;;;;25.60;16.40;;;15.60;38.40;;;;;;5003260;28;20433;-66
2023/03/02 10:43:47;;;;;;;22.00;15.77;;;15.50;38.40;;;;;;5003008;28;20484;-65
2023/03/02 10:46:13;;;;;;;20.37;17.00;;;15.60;38.60;;;;;;5006068;28;20859;-66
2023/03/02 10:48:51;;;;;;;22.60;16.73;;;15.60;38.20;;;;;;5006759;28;20468;-65
2023/03/02 10:51:25;;;;;;;19.60;15.60;;;15.70;37.70;;;;;;5007021;28;20449;-65
2023/03/02 10:54:13;;;;;;;19.10;15.73;;;15.80;38.10;;;;;;5002911;28;20436;-65
2023/03/02 10:56:42;;;;;;;21.37;16.47;;;15.70;38.00;;;;;;5001090;28;20560;-66
2023/03/02 10:59:39;;;;;;;21.73;16.27;;;15.90;38.20;;;;;;5004756;28;20441;-66
2023/03/02 11:02:23;;;;;;;19.17;15.77;;;16.00;37.40;;;;;;5000194;28;21002;-66
2023/03/02 11:04:53;;;;;;;22.60;16.93;;;16.00;37.50;;;;;;5004549;28;20991;-66
2023/03/02 11:07:21;;;;;;;19.57;16.43;;;15.80;37.80;;;;;;5006571;28;20444;-66
2023/03/02 11:10:06;;;;;;;21.43;16.37;;;15.90;38.30;;;;;;4997146;28;20448;-66
2023/03/02 11:12:34;;;;;;;20.90;16.60;;;16.20;38.40;;;;;;5007529;28;20502;-66
2023/03/02 11:15:15;;;;;;;25.53;16.57;;;16.20;37.30;;;;;;5005833;28;20444;-66
2023/03/02 11:17:44;;;;;;;18.53;16.47;;;16.40;37.40;;;;;;5008221;28;20963;-66
2023/03/02 11:20:19;;;;;;;17.80;14.90;;;16.40;37.10;;;;;;5004637;28;20797;-66
2023/03/02 11:23:10;;;;;;;20.43;16.50;;;16.60;37.00;;;;;;4998341;28;20492;-66
2023/03/02 11:25:39;;;;;;;23.73;15.60;;;16.60;36.80;;;;;;5002601;28;20476;-66
2023/03/02 11:28:21;;;;;;;23.43;15.93;;;16.80;36.80;;;;;;4997564;28;20483;-66
2023/03/02 11:30:50;;;;;;;23.70;16.90;;;16.80;37.00;;;;;;5006177;28;20802;-67
2023/03/02 11:33:35;;;;;;;20.20;16.07;;;17.00;36.50;;;;;;5006061;28;20449;-67
2023/03/02 11:36:06;;;;;;;20.67;16.10;;;17.00;36.20;;;;;;5004567;28;20447;-67
2023/03/02 11:38:41;;;;;;;22.50;17.67;;;16.90;36.40;;;;;;5011486;28;20527;-67
2023/03/02 11:41:26;;;;;;;20.83;15.80;;;16.80;36.50;;;;;;5009540;28;20444;-66
2023/03/02 11:44:00;;;;;;;21.10;15.83;;;17.00;36.70;;;;;;5012269;28;20472;-67
2023/03/02 11:46:30;;;;;;;20.47;15.17;;;17.00;36.50;;;;;;5008611;28;20455;-67
2023/03/02 11:49:25;;;;;;;18.43;15.57;;;17.20;36.70;;;;;;5012539;28;20980;-67
2023/03/02 11:51:56;;;;;;;20.77;15.33;;;17.20;36.50;;;;;;5009529;28;21023;-67
2023/03/02 11:54:45;;;;;;;17.70;14.80;;;17.30;35.80;;;;;;5007124;28;20461;-67
2023/03/02 11:57:29;;;;;;;20.27;16.83;;;17.10;36.00;;;;;;5009284;28;20441;-67
2023/03/02 11:59:55;;;;;;;22.37;16.10;;;17.10;36.60;;;;;;4997485;28;20445;-67
2023/03/02 12:02:22;;;;;;;19.47;16.00;;;17.00;37.00;;;;;;4988116;28;20497;-67
2023/03/02 12:04:47;;;;;;;17.90;14.97;;;17.20;36.70;;;;;;5010308;28;20457;-66
2023/03/02 12:07:18;;;;;;;18.60;16.40;;;17.30;36.40;;;;;;5010892;28;20463;-67
2023/03/02 12:09:59;;;;;;;18.43;15.50;;;17.50;36.20;;;;;;5011113;28;20265;-67
2023/03/02 12:12:25;;;;;;;19.47;15.50;;;17.50;35.90;;;;;;5009809;28;20435;-67
2023/03/02 12:14:51;;;;;;;18.90;15.67;;;17.40;35.80;;;;;;4989950;28;20457;-67
2023/03/02 12:17:26;;;;;;;20.20;15.60;;;17.40;36.20;;;;;;5005643;28;20984;-67
2023/03/02 12:20:23;;;;;;;20.83;15.30;;;17.50;35.90;;;;;;5011106;28;20460;-67
2023/03/02 12:22:49;;;;;;;21.60;15.07;;;17.60;36.20;;;;;;4996657;28;20500;-67
2023/03/02 12:25:17;;;;;;;19.03;15.50;;;17.50;35.80;;;;;;5007641;28;20441;-67
2023/03/02 12:27:43;;;;;;;21.90;15.70;;;17.60;36.10;;;;;;4999938;28;20273;-67
2023/03/02 12:30:15;;;;;;;17.40;14.90;;;17.60;36.50;;;;;;5008653;28;20988;-67
2023/03/02 12:32:44;;;;;;;18.30;15.53;;;17.60;36.30;;;;;;5011089;28;20535;-67
2023/03/02 12:35:18;;;;;;;18.10;15.17;;;17.70;36.10;;;;;;5009091;28;20472;-66
2023/03/02 12:37:47;;;;;;;20.60;16.67;;;17.80;36.30;;;;;;5005155;28;20503;-66
2023/03/02 12:40:32;;;;;;;23.33;15.67;;;17.90;36.40;;;;;;5004403;28;21103;-67
2023/03/02 12:43:16;;;;;;;20.37;15.43;;;17.90;36.20;;;;;;5002157;28;20572;-66